This is the latest recevied weather packets stored in our database for station/object EA2ESA-13. If no packets are shown the sender has not sent any weather packets the latest 10 day(s).
| Time | Temp. | Humidity | Pressure | Rain* | Wind** | Luminosity | Snow |
|---|---|---|---|---|---|---|---|
| 1777480720 | 21.67° C | 70% | 1012.1 hPa | 0 mm | 0 m/s | - | - |
| 1777480119 | 21.67° C | 70% | 1012.2 hPa | 0 mm | 0 m/s | - | - |
| 1777479518 | 21.67° C | 69% | 1012 hPa | 0 mm | 0 m/s | - | - |
| 1777478918 | 22.22° C | 69% | 1011.8 hPa | 0 mm | 0 m/s | - | - |
| 1777478317 | 21.67° C | 69% | 1012 hPa | 0 mm | 0 m/s | - | - |
| 1777477716 | 21.67° C | 71% | 1012.1 hPa | 0 mm | 0 m/s | - | - |
| 1777477115 | 21.11° C | 71% | 1012.1 hPa | 0 mm | 0 m/s | - | - |
| 1777476514 | 21.67° C | 70% | 1012.3 hPa | 0 mm | 0 m/s | - | - |
| 1777475913 | 22.22° C | 70% | 1012.2 hPa | 0 mm | 0 m/s | - | - |
| 1777475313 | 22.22° C | 68% | 1012.4 hPa | 0 mm | 0 m/s | - | - |
| 1777474712 | 22.78° C | 64% | 1012.5 hPa | 0 mm | 0 m/s | - | - |
| 1777474111 | 23.33° C | 62% | 1012.5 hPa | 0 mm | 0 m/s | - | - |
| 1777473510 | 23.33° C | 63% | 1012.6 hPa | 0 mm | 0 m/s | - | - |
| 1777472909 | 23.89° C | 62% | 1012.5 hPa | 0 mm | 0 m/s | - | - |
| 1777472308 | 23.89° C | 61% | 1012.3 hPa | 0 mm | 0 m/s | - | - |
| 1777471707 | 23.89° C | 61% | 1012.1 hPa | 0 mm | 0 m/s | - | - |
| 1777471106 | 23.89° C | 62% | 1012 hPa | 0 mm | 0 m/s | - | - |
| 1777470506 | 23.33° C | 63% | 1012.1 hPa | 0 mm | 0 m/s | - | - |
| 1777469905 | 22.78° C | 66% | 1012.2 hPa | 0 mm | 0 m/s | - | - |
| 1777469304 | 21.67° C | 67% | 1012.3 hPa | 0 mm | 0 m/s | - | - |
| 1777468703 | 21.67° C | 67% | 1012.3 hPa | 0 mm | 0 m/s | - | - |
| 1777468102 | 21.11° C | 67% | 1012.3 hPa | 0 mm | 0 m/s | - | - |
| 1777467501 | 20.56° C | 68% | 1012.2 hPa | 0 mm | 0 m/s | - | - |
| 1777466900 | 20.56° C | 68% | 1012.3 hPa | 0 mm | 0 m/s | - | - |
| 1777466299 | 20.56° C | 68% | 1012.4 hPa | 0 mm | 0 m/s | - | - |
* Rain latest hour (hover to see other rain measurements)
** Current wind speed in m/s (hover to see current wind gust speed)